createdAt,value
2019-04-06T00:01:29.689Z,39.65
2019-04-06T00:03:01.943Z,41.33
2019-04-06T00:04:34.189Z,46.88
2019-04-06T00:06:06.419Z,41.50
2019-04-06T00:07:38.672Z,41.15
2019-04-06T00:09:10.808Z,43.05
2019-04-06T00:10:43.087Z,40.80
2019-04-06T00:12:15.324Z,42.30
2019-04-06T00:13:47.410Z,47.25
2019-04-06T00:15:19.560Z,46.40
2019-04-06T00:16:51.710Z,44.55
2019-04-06T00:18:23.943Z,50.90
2019-04-06T00:19:57.988Z,44.33
2019-04-06T00:21:30.118Z,45.00
2019-04-06T00:23:02.382Z,84.10
2019-04-06T00:24:34.620Z,122.82
2019-04-06T00:26:06.840Z,128.23
2019-04-06T00:27:39.090Z,124.95
2019-04-06T00:29:11.299Z,71.70
2019-04-06T00:31:08.998Z,70.97
2019-04-06T00:33:03.155Z,49.95
2019-04-06T00:34:35.310Z,46.98
2019-04-06T00:36:07.424Z,60.23
2019-04-06T00:37:39.716Z,123.72
2019-04-06T00:39:11.986Z,81.32
2019-04-06T00:40:44.278Z,167.43
2019-04-06T00:42:16.472Z,73.40
2019-04-06T00:43:48.570Z,103.65
2019-04-06T00:45:20.693Z,164.93
2019-04-06T00:46:53.042Z,160.75
2019-04-06T00:48:25.297Z,134.57
2019-04-06T00:49:57.505Z,121.80
2019-04-06T00:51:29.666Z,80.35
2019-04-06T00:53:01.796Z,42.27
2019-04-06T00:54:33.904Z,36.33
2019-04-06T00:56:06.126Z,40.63
2019-04-06T00:57:38.257Z,43.60
2019-04-06T00:59:10.449Z,41.40
2019-04-06T01:00:42.707Z,41.20
2019-04-06T01:02:15.087Z,40.38
2019-04-06T01:03:47.361Z,40.78
2019-04-06T01:05:19.618Z,46.40
2019-04-06T01:06:51.866Z,45.10
2019-04-06T01:08:24.006Z,44.50
2019-04-06T01:09:56.134Z,46.80
2019-04-06T01:11:28.353Z,42.43
2019-04-06T01:13:00.635Z,47.15
2019-04-06T01:14:32.812Z,43.50
2019-04-06T01:16:06.204Z,46.92
2019-04-06T01:17:39.412Z,44.45
2019-04-06T01:19:11.775Z,40.43
2019-04-06T01:20:44.156Z,62.53
2019-04-06T01:22:16.430Z,58.23
2019-04-06T01:23:48.653Z,41.35
2019-04-06T01:25:20.815Z,44.03
2019-04-06T01:26:53.058Z,42.58
2019-04-06T01:28:25.193Z,45.28
2019-04-06T01:29:57.301Z,41.85
2019-04-06T01:31:29.447Z,55.38
2019-04-06T01:33:01.548Z,48.83
2019-04-06T01:34:33.653Z,47.03
2019-04-06T01:36:05.858Z,55.78
2019-04-06T01:37:38.061Z,99.35
2019-04-06T01:39:10.149Z,51.65
2019-04-06T01:40:42.390Z,122.80
2019-04-06T01:42:14.554Z,207.43
2019-04-06T01:43:46.756Z,110.35
2019-04-06T01:45:18.988Z,226.37
2019-04-06T01:46:51.220Z,102.55
2019-04-06T01:48:23.553Z,237.60
2019-04-06T01:49:55.808Z,107.50
2019-04-06T01:51:28.105Z,184.25
2019-04-06T01:53:00.213Z,221.72
2019-04-06T01:54:32.450Z,249.58
2019-04-06T01:56:04.584Z,257.55
2019-04-06T01:57:36.822Z,246.47
2019-04-06T01:59:09.113Z,121.25
2019-04-06T02:00:51.340Z,248.62
2019-04-06T02:02:27.298Z,108.15
2019-04-06T02:03:59.532Z,210.17
2019-04-06T02:05:31.611Z,173.97
2019-04-06T02:07:03.864Z,63.60
2019-04-06T02:08:35.995Z,102.97
2019-04-06T02:10:08.244Z,102.17
2019-04-06T02:11:40.518Z,122.55
2019-04-06T02:13:12.782Z,68.45
2019-04-06T02:14:44.954Z,44.33
2019-04-06T02:16:17.156Z,41.75
2019-04-06T02:17:49.412Z,38.58
2019-04-06T02:19:21.503Z,46.08
2019-04-06T02:20:53.737Z,54.10
2019-04-06T02:22:25.863Z,51.53
2019-04-06T02:23:58.122Z,55.28
2019-04-06T02:25:30.262Z,202.72
2019-04-06T02:27:02.605Z,225.00
2019-04-06T02:28:36.816Z,417.72
2019-04-06T02:30:21.570Z,251.25
2019-04-06T02:32:31.211Z,219.97
2019-04-06T02:34:22.967Z,379.52
2019-04-06T02:36:04.176Z,372.85
2019-04-06T02:37:53.387Z,376.18
2019-04-06T02:39:54.082Z,186.47
2019-04-06T02:41:54.727Z,359.77
2019-04-06T02:43:29.750Z,380.12
2019-04-06T02:45:02.125Z,266.15
2019-04-06T02:46:34.421Z,284.10
2019-04-06T02:48:06.667Z,159.07
2019-04-06T02:49:38.903Z,124.20
2019-04-06T02:51:11.361Z,139.95
2019-04-06T02:52:43.728Z,159.30
2019-04-06T02:54:15.811Z,344.95
2019-04-06T02:55:48.091Z,232.95
2019-04-06T02:57:20.243Z,308.93
2019-04-06T02:58:52.410Z,372.02
2019-04-06T03:00:26.695Z,330.80
2019-04-06T03:01:59.001Z,293.00
2019-04-06T03:03:31.269Z,303.42
2019-04-06T03:05:03.948Z,468.80
2019-04-06T03:06:36.061Z,398.40
2019-04-06T03:08:08.306Z,523.42
2019-04-06T03:09:40.819Z,386.12
2019-04-06T03:11:13.192Z,83.60
2019-04-06T03:12:45.323Z,271.65
2019-04-06T03:14:17.647Z,407.73
2019-04-06T03:15:49.823Z,358.93
2019-04-06T03:17:21.933Z,266.48
2019-04-06T03:18:54.214Z,151.63
2019-04-06T03:20:26.502Z,240.75
2019-04-06T03:21:58.851Z,239.00
2019-04-06T03:23:31.021Z,224.18
2019-04-06T03:25:03.991Z,132.97
2019-04-06T03:26:36.117Z,134.52
2019-04-06T03:28:08.337Z,137.62
2019-04-06T03:29:40.561Z,136.60
2019-04-06T03:31:13.137Z,303.40
2019-04-06T03:32:45.665Z,345.42
2019-04-06T03:34:21.623Z,338.12
2019-04-06T03:35:52.526Z,183.75
2019-04-06T03:37:24.964Z,188.42
2019-04-06T03:38:57.214Z,155.65
2019-04-06T03:40:29.576Z,164.57
2019-04-06T03:42:01.879Z,165.55
2019-04-06T03:43:34.311Z,159.15
2019-04-06T03:45:06.822Z,181.85
2019-04-06T03:46:39.065Z,334.70
2019-04-06T03:48:11.423Z,168.87
2019-04-06T03:49:43.872Z,171.35
2019-04-06T03:51:16.075Z,185.63
2019-04-06T03:52:48.326Z,170.82
2019-04-06T03:54:20.765Z,212.17
2019-04-06T03:55:53.347Z,107.83
2019-04-06T03:57:25.715Z,173.65
2019-04-06T03:58:58.175Z,225.30
2019-04-06T04:00:30.439Z,132.05
2019-04-06T04:02:02.572Z,179.32
2019-04-06T04:03:34.741Z,148.43
2019-04-06T04:05:06.984Z,286.10
2019-04-06T04:06:39.368Z,165.00
2019-04-06T04:08:11.640Z,253.42
2019-04-06T04:09:44.017Z,184.03
2019-04-06T04:11:16.155Z,384.30
2019-04-06T04:12:48.267Z,159.55
2019-04-06T04:14:20.407Z,256.75
2019-04-06T04:15:56.337Z,248.15
2019-04-06T04:17:27.168Z,505.65
2019-04-06T04:18:59.518Z,357.20
2019-04-06T04:20:31.697Z,177.87
2019-04-06T04:22:03.869Z,272.55
2019-04-06T04:23:36.147Z,377.02
2019-04-06T04:25:08.531Z,160.20
2019-04-06T04:26:40.885Z,269.27
2019-04-06T04:28:13.030Z,303.52
2019-04-06T04:29:45.368Z,309.90
2019-04-06T04:31:17.601Z,191.07
2019-04-06T04:32:50.213Z,314.10
2019-04-06T04:34:22.645Z,371.02
2019-04-06T04:35:54.923Z,566.30
2019-04-06T04:37:27.382Z,544.00
2019-04-06T04:38:59.777Z,424.38
2019-04-06T04:40:32.142Z,233.85
2019-04-06T04:42:04.574Z,320.67
2019-04-06T04:43:36.791Z,362.40
2019-04-06T04:45:10.890Z,270.23
2019-04-06T04:46:43.031Z,225.03
2019-04-06T04:48:15.245Z,151.47
2019-04-06T04:49:47.346Z,343.75
2019-04-06T04:51:19.656Z,284.75
2019-04-06T04:52:51.956Z,211.87
2019-04-06T04:56:58.671Z,332.32
2019-04-06T05:02:04.842Z,309.02
2019-04-06T05:03:37.107Z,365.90
2019-04-06T05:05:09.968Z,196.12
2019-04-06T05:06:42.286Z,207.15
2019-04-06T05:08:14.672Z,414.60
2019-04-06T05:09:46.952Z,340.27
2019-04-06T05:11:19.177Z,465.30
2019-04-06T05:12:51.458Z,394.15
2019-04-06T05:14:58.270Z,292.40
2019-04-06T05:16:30.371Z,415.23
2019-04-06T05:18:02.576Z,351.37
2019-04-06T05:19:34.690Z,358.80
2019-04-06T05:21:06.914Z,411.35
2019-04-06T05:22:39.191Z,203.90
2019-04-06T05:24:11.317Z,527.35
2019-04-06T05:25:43.596Z,467.90
2019-04-06T05:27:15.707Z,461.82
2019-04-06T05:28:47.946Z,189.47
2019-04-06T05:30:20.204Z,205.35
2019-04-06T05:31:52.456Z,348.73
2019-04-06T05:33:24.847Z,363.40
2019-04-06T05:34:58.344Z,246.37
2019-04-06T05:36:30.880Z,377.98
2019-04-06T05:38:03.035Z,472.70
2019-04-06T05:39:35.263Z,292.40
2019-04-06T05:41:07.544Z,215.68
2019-04-06T05:42:39.678Z,310.50
2019-04-06T05:44:11.977Z,417.37
2019-04-06T05:45:44.110Z,407.23
2019-04-06T05:47:16.277Z,356.20
2019-04-06T05:48:48.460Z,307.02
2019-04-06T05:50:20.851Z,284.85
2019-04-06T05:51:53.086Z,341.42
2019-04-06T05:53:25.349Z,206.97
2019-04-06T05:54:57.972Z,344.32
2019-04-06T05:56:30.184Z,269.62
2019-04-06T05:58:04.584Z,387.05
2019-04-06T05:59:40.327Z,259.45
2019-04-06T06:01:11.339Z,241.97
2019-04-06T06:02:43.660Z,386.73
2019-04-06T06:04:15.908Z,440.95
2019-04-06T06:05:48.071Z,244.18
2019-04-06T06:07:20.250Z,243.50
2019-04-06T06:08:52.490Z,192.40
2019-04-06T06:10:24.730Z,221.15
2019-04-06T06:11:57.024Z,364.25
2019-04-06T06:13:30.483Z,191.73
2019-04-06T06:15:03.298Z,225.85
2019-04-06T06:16:35.540Z,245.75
2019-04-06T06:18:07.813Z,178.97
2019-04-06T06:19:40.108Z,184.18
2019-04-06T06:21:12.297Z,138.68
2019-04-06T06:22:44.644Z,130.07
2019-04-06T06:24:16.877Z,131.78
2019-04-06T06:25:50.028Z,220.35
2019-04-06T06:27:23.015Z,124.90
2019-04-06T06:28:55.976Z,182.43
2019-04-06T06:30:28.223Z,255.25
2019-04-06T06:32:00.474Z,206.85
2019-04-06T06:33:32.621Z,153.15
2019-04-06T06:35:05.293Z,172.32
2019-04-06T06:36:37.567Z,122.33
2019-04-06T06:38:10.203Z,105.20
2019-04-06T06:39:42.363Z,101.67
2019-04-06T06:41:14.640Z,87.20
2019-04-06T06:42:47.056Z,76.15
2019-04-06T06:44:19.287Z,89.03
2019-04-06T06:45:51.564Z,106.87
2019-04-06T06:47:23.729Z,123.15
2019-04-06T06:48:55.958Z,63.28
2019-04-06T06:50:28.030Z,85.47
2019-04-06T06:52:00.329Z,123.65
2019-04-06T06:53:32.568Z,69.95
2019-04-06T06:55:05.233Z,70.25
2019-04-06T06:56:37.649Z,102.67
2019-04-06T06:58:09.914Z,49.18
2019-04-06T06:59:42.089Z,54.33
2019-04-06T07:01:14.389Z,48.20
2019-04-06T07:02:46.621Z,54.65
2019-04-06T07:04:18.865Z,50.92
2019-04-06T07:05:51.136Z,58.15
2019-04-06T07:07:23.274Z,54.13
2019-04-06T07:08:55.421Z,49.80
2019-04-06T07:10:27.576Z,50.65
2019-04-06T07:11:59.968Z,53.45
2019-04-06T07:13:32.187Z,57.98
2019-04-06T07:15:05.520Z,52.53
2019-04-06T07:16:37.876Z,57.95
2019-04-06T07:18:10.013Z,49.75
2019-04-06T07:19:42.310Z,53.05
2019-04-06T07:21:16.565Z,44.80
2019-04-06T07:22:48.730Z,51.83
2019-04-06T07:24:20.929Z,51.55
2019-04-06T07:25:58.746Z,43.92
2019-04-06T07:27:27.351Z,55.38
2019-04-06T07:28:59.446Z,50.12
2019-04-06T07:30:31.565Z,46.77
2019-04-06T07:32:03.693Z,55.45
2019-04-06T07:33:35.849Z,54.00
2019-04-06T07:35:08.315Z,46.20
2019-04-06T07:36:40.511Z,44.18
2019-04-06T07:38:12.804Z,41.98
2019-04-06T07:39:45.128Z,52.38
2019-04-06T07:41:17.427Z,52.58
2019-04-06T07:42:49.800Z,55.00
2019-04-06T07:44:22.158Z,55.58
2019-04-06T07:45:54.494Z,51.60
2019-04-06T07:47:26.560Z,56.02
2019-04-06T07:49:07.911Z,54.20
2019-04-06T07:50:32.765Z,53.30
2019-04-06T07:52:05.064Z,48.15
2019-04-06T07:53:37.177Z,52.83
2019-04-06T07:55:09.479Z,54.67
2019-04-06T07:56:41.620Z,52.83
2019-04-06T07:58:13.882Z,64.12
2019-04-06T07:59:45.972Z,50.67
2019-04-06T08:01:18.365Z,53.58
2019-04-06T08:02:50.537Z,46.50
2019-04-06T08:04:22.679Z,49.03
2019-04-06T08:05:54.910Z,45.85
2019-04-06T08:07:27.296Z,48.08
2019-04-06T08:08:59.551Z,43.33
2019-04-06T08:10:31.840Z,43.90
2019-04-06T08:12:03.989Z,46.00
2019-04-06T08:13:36.076Z,46.83
2019-04-06T08:15:08.299Z,39.27
2019-04-06T08:16:40.532Z,43.58
2019-04-06T08:18:12.752Z,32.85
2019-04-06T08:19:44.864Z,32.35
2019-04-06T08:21:19.603Z,34.33
2019-04-06T08:22:51.289Z,34.45
2019-04-06T08:24:23.402Z,39.90
2019-04-06T08:25:55.676Z,37.98
2019-04-06T08:27:27.792Z,40.12
2019-04-06T08:29:02.232Z,37.20
2019-04-06T08:30:44.712Z,41.13
2019-04-06T08:32:08.246Z,36.93
2019-04-06T08:33:40.510Z,38.10
2019-04-06T08:35:23.955Z,40.17
2019-04-06T08:36:47.088Z,36.63
2019-04-06T08:38:19.184Z,38.88
2019-04-06T08:39:51.555Z,36.58
2019-04-06T08:41:23.667Z,37.80
2019-04-06T08:42:56.141Z,38.23
2019-04-06T08:44:28.272Z,34.07
2019-04-06T08:46:00.575Z,34.27
2019-04-06T08:47:32.749Z,37.57
2019-04-06T08:49:04.845Z,36.47
2019-04-06T08:50:37.104Z,34.60
2019-04-06T08:52:11.413Z,36.97
2019-04-06T08:53:43.270Z,37.37
2019-04-06T08:55:15.436Z,36.57
2019-04-06T08:56:47.709Z,34.23
2019-04-06T08:58:20.137Z,34.50
2019-04-06T08:59:52.472Z,35.17
2019-04-06T09:01:24.613Z,37.00
2019-04-06T09:02:56.722Z,34.27
2019-04-06T09:04:28.987Z,35.33
2019-04-06T09:06:01.232Z,34.00
2019-04-06T09:07:33.374Z,33.50
2019-04-06T09:09:06.030Z,35.03
2019-04-06T09:10:38.391Z,34.03
2019-04-06T09:12:10.530Z,32.50
2019-04-06T09:13:42.725Z,32.80
2019-04-06T09:15:16.456Z,33.50
2019-04-06T09:16:48.636Z,32.37
2019-04-06T09:18:20.840Z,32.93
2019-04-06T09:19:53.045Z,31.20
2019-04-06T09:21:25.200Z,32.20
2019-04-06T09:22:57.519Z,30.87
2019-04-06T09:24:29.789Z,32.87
2019-04-06T09:26:02.219Z,32.50
2019-04-06T09:27:34.487Z,34.80
2019-04-06T09:29:06.735Z,32.23
2019-04-06T09:30:38.813Z,31.87
2019-04-06T09:32:11.081Z,32.53
2019-04-06T09:33:43.300Z,32.67
2019-04-06T09:35:15.398Z,32.23
2019-04-06T09:36:47.536Z,29.97
2019-04-06T09:38:19.762Z,31.97
2019-04-06T09:39:52.001Z,30.73
2019-04-06T09:41:26.122Z,31.30
2019-04-06T09:42:58.631Z,30.17
2019-04-06T09:44:39.909Z,31.70
2019-04-06T09:46:27.853Z,30.07
2019-04-06T09:48:09.787Z,32.30
2019-04-06T09:50:01.539Z,29.43
2019-04-06T09:51:52.433Z,29.50
2019-04-06T09:53:50.506Z,32.10
2019-04-06T09:55:37.906Z,30.80
2019-04-06T09:57:28.468Z,29.27
2019-04-06T09:59:13.576Z,28.23
2019-04-06T10:01:20.236Z,31.00
2019-04-06T10:03:04.495Z,29.23
2019-04-06T10:04:53.253Z,30.77
2019-04-06T10:06:44.451Z,32.13
2019-04-06T10:08:46.708Z,29.83
2019-04-06T10:10:44.124Z,31.97
2019-04-06T10:12:38.622Z,30.90
2019-04-06T10:14:25.136Z,31.60
2019-04-06T10:16:19.682Z,30.20
2019-04-06T10:18:20.575Z,29.73
2019-04-06T10:20:12.386Z,31.10
2019-04-06T10:21:57.557Z,29.57
2019-04-06T10:23:49.264Z,30.30
2019-04-06T10:25:52.976Z,29.03
2019-04-06T10:27:51.002Z,28.80
2019-04-06T10:29:48.260Z,30.70
2019-04-06T10:31:53.236Z,31.03
2019-04-06T10:33:43.557Z,30.00
2019-04-06T10:35:34.283Z,29.90
2019-04-06T10:37:26.161Z,30.10
2019-04-06T10:39:15.028Z,29.30
2019-04-06T10:41:05.517Z,29.30
2019-04-06T10:42:56.172Z,31.73
2019-04-06T10:44:41.265Z,30.97
2019-04-06T10:46:28.938Z,29.87
2019-04-06T10:48:26.921Z,31.03
2019-04-06T10:50:19.805Z,29.60
2019-04-06T10:52:26.728Z,32.03
2019-04-06T10:54:05.425Z,30.57
2019-04-06T10:55:43.830Z,30.80
2019-04-06T10:57:30.640Z,29.53
2019-04-06T10:59:17.198Z,30.87
2019-04-06T11:01:07.887Z,29.80
2019-04-06T11:02:53.180Z,30.77
2019-04-06T11:04:29.843Z,29.53
2019-04-06T11:06:07.684Z,30.33
2019-04-06T11:07:50.466Z,29.33
2019-04-06T11:09:40.039Z,31.70
2019-04-06T11:11:20.651Z,30.47
2019-04-06T11:13:08.085Z,30.93
2019-04-06T11:14:56.328Z,29.40
2019-04-06T11:16:37.420Z,29.50
2019-04-06T11:18:29.149Z,30.87
2019-04-06T11:20:09.694Z,29.90
2019-04-06T11:22:01.603Z,31.47
2019-04-06T11:23:43.006Z,31.50
2019-04-06T11:25:21.059Z,31.17
2019-04-06T11:27:21.861Z,34.60
2019-04-06T11:29:22.894Z,33.10
2019-04-06T11:31:20.468Z,32.47
2019-04-06T11:33:02.941Z,33.60
2019-04-06T11:35:00.760Z,33.60
2019-04-06T11:36:56.736Z,34.00
2019-04-06T11:38:40.808Z,33.47
2019-04-06T11:40:38.989Z,32.57
2019-04-06T11:42:30.744Z,32.53
2019-04-06T11:44:11.480Z,31.93
2019-04-06T11:45:50.888Z,35.40
2019-04-06T11:47:42.532Z,30.93
2019-04-06T11:49:32.880Z,33.33
2019-04-06T11:51:31.445Z,33.20
2019-04-06T11:53:10.194Z,31.93
2019-04-06T11:54:58.103Z,33.33
2019-04-06T11:56:44.897Z,33.33
2019-04-06T11:58:24.536Z,32.97
2019-04-06T12:00:07.683Z,34.33
2019-04-06T12:01:57.507Z,35.17
2019-04-06T12:03:39.845Z,33.83
2019-04-06T12:05:49.545Z,34.63
2019-04-06T12:07:39.882Z,35.27
2019-04-06T12:09:37.956Z,34.87
2019-04-06T12:11:32.767Z,35.90
2019-04-06T12:13:22.191Z,35.83
2019-04-06T12:15:09.491Z,37.43
2019-04-06T12:17:00.310Z,35.37
2019-04-06T12:18:39.410Z,37.37
2019-04-06T12:20:31.317Z,35.93
2019-04-06T12:22:21.832Z,36.73
2019-04-06T12:24:13.631Z,36.43
2019-04-06T12:26:11.030Z,35.67
2019-04-06T12:28:12.301Z,37.70
2019-04-06T12:29:55.187Z,36.77
2019-04-06T12:31:40.040Z,37.30
2019-04-06T12:33:29.268Z,37.03
2019-04-06T12:35:10.063Z,34.90
2019-04-06T12:37:16.829Z,37.80
2019-04-06T12:39:14.372Z,35.93
2019-04-06T12:40:56.323Z,34.40
2019-04-06T12:42:53.955Z,35.90
2019-04-06T12:44:44.202Z,35.63
2019-04-06T12:46:50.856Z,35.83
2019-04-06T12:48:42.786Z,37.17
2019-04-06T12:50:26.245Z,37.30
2019-04-06T12:52:17.150Z,36.17
2019-04-06T12:54:08.209Z,37.07
2019-04-06T12:55:50.529Z,33.97
2019-04-06T12:57:36.484Z,34.10
2019-04-06T12:59:26.740Z,35.07
2019-04-06T13:01:33.712Z,33.37
2019-04-06T13:03:28.933Z,35.50
2019-04-06T13:05:19.216Z,36.05
2019-04-06T13:07:16.718Z,37.20
2019-04-06T13:09:00.912Z,33.85
2019-04-06T13:10:54.586Z,33.20
2019-04-06T13:12:39.380Z,36.67
2019-04-06T13:14:35.776Z,32.83
2019-04-06T13:16:26.568Z,36.58
2019-04-06T13:18:11.015Z,33.85
2019-04-06T13:20:01.215Z,30.02
2019-04-06T13:22:11.517Z,29.60
2019-04-06T13:24:06.540Z,27.80
2019-04-06T13:25:57.412Z,28.60
2019-04-06T13:27:52.276Z,30.80
2019-04-06T13:29:41.127Z,27.87
2019-04-06T13:31:18.696Z,26.65
2019-04-06T13:33:22.984Z,26.65
2019-04-06T13:35:15.522Z,26.97
2019-04-06T13:37:05.988Z,28.38
2019-04-06T13:38:55.060Z,25.85
2019-04-06T13:40:42.756Z,27.00
2019-04-06T13:42:40.591Z,27.02
2019-04-06T13:44:35.087Z,27.30
2019-04-06T13:46:32.806Z,23.67
2019-04-06T13:48:30.449Z,22.95
2019-04-06T13:50:21.258Z,24.63
2019-04-06T13:52:11.550Z,25.37
2019-04-06T13:53:51.375Z,24.75
2019-04-06T13:55:45.625Z,25.27
2019-04-06T13:57:32.892Z,25.30
2019-04-06T13:59:20.387Z,26.97
2019-04-06T14:01:14.409Z,25.17
2019-04-06T14:02:57.388Z,25.68
2019-04-06T14:04:44.715Z,23.85
2019-04-06T14:06:42.318Z,23.80
2019-04-06T14:08:34.192Z,22.82
2019-04-06T14:10:12.854Z,22.85
2019-04-06T14:12:03.123Z,21.05
2019-04-06T14:13:47.682Z,21.33
2019-04-06T14:15:35.236Z,21.60
2019-04-06T14:17:25.335Z,21.87
2019-04-06T14:19:33.161Z,21.55
2019-04-06T14:21:22.356Z,21.55
2019-04-06T14:23:13.681Z,20.45
2019-04-06T14:24:58.837Z,20.32
2019-04-06T14:26:56.333Z,19.57
2019-04-06T14:28:37.556Z,21.05
2019-04-06T14:30:22.816Z,22.55
2019-04-06T14:32:14.619Z,21.45
2019-04-06T14:34:09.029Z,20.80
2019-04-06T14:36:18.864Z,21.82
2019-04-06T14:38:12.641Z,23.07
2019-04-06T14:40:16.667Z,24.75
2019-04-06T14:42:03.224Z,22.67
2019-04-06T14:43:49.042Z,22.50
2019-04-06T14:45:55.806Z,24.85
2019-04-06T14:47:45.879Z,23.32
2019-04-06T14:49:33.072Z,25.00
2019-04-06T14:51:27.316Z,25.15
2019-04-06T14:53:27.957Z,26.05
2019-04-06T14:55:07.986Z,24.05
2019-04-06T14:57:00.335Z,23.98
2019-04-06T14:58:51.069Z,23.07
2019-04-06T15:00:42.477Z,23.47
2019-04-06T15:02:49.274Z,22.87
2019-04-06T15:04:31.353Z,23.98
2019-04-06T15:06:38.265Z,26.25
2019-04-06T15:08:30.009Z,27.00
2019-04-06T15:10:16.420Z,24.40
2019-04-06T15:12:10.406Z,24.40
2019-04-06T15:14:00.720Z,26.30
2019-04-06T15:15:52.460Z,23.12
2019-04-06T15:17:46.951Z,23.52
2019-04-06T15:19:42.163Z,25.52
2019-04-06T15:21:42.800Z,25.92
2019-04-06T15:23:43.831Z,23.57
2019-04-06T15:25:38.401Z,24.57
2019-04-06T15:27:35.822Z,24.45
2019-04-06T15:29:27.548Z,25.92
2019-04-06T15:31:19.622Z,25.17
2019-04-06T15:33:04.333Z,25.62
2019-04-06T15:34:56.386Z,24.87
2019-04-06T15:37:07.323Z,25.37
2019-04-06T15:38:48.607Z,25.62
2019-04-06T15:40:46.722Z,29.10
2019-04-06T15:42:57.177Z,24.55
2019-04-06T15:44:38.110Z,24.02
2019-04-06T15:46:30.113Z,24.55
2019-04-06T15:48:11.644Z,26.57
2019-04-06T15:50:18.472Z,24.55
2019-04-06T15:52:10.312Z,25.95
2019-04-06T15:54:06.931Z,24.60
2019-04-06T15:55:52.330Z,25.12
2019-04-06T15:57:33.228Z,26.48
2019-04-06T15:59:39.776Z,26.80
2019-04-06T16:01:29.897Z,27.37
2019-04-06T16:03:30.825Z,27.40
2019-04-06T16:05:24.603Z,27.58
2019-04-06T16:07:30.171Z,27.30
2019-04-06T16:09:17.182Z,26.60
2019-04-06T16:11:08.045Z,25.70
2019-04-06T16:12:52.434Z,27.45
2019-04-06T16:14:43.750Z,25.88
2019-04-06T16:16:20.634Z,26.55
2019-04-06T16:18:08.750Z,25.55
2019-04-06T16:19:56.504Z,27.30
2019-04-06T16:21:40.089Z,27.85
2019-04-06T16:23:24.736Z,25.82
2019-04-06T16:25:09.244Z,26.15
2019-04-06T16:27:03.573Z,27.13
2019-04-06T16:28:59.959Z,26.27
2019-04-06T16:30:54.419Z,26.12
2019-04-06T16:32:48.987Z,28.05
2019-04-06T16:34:32.805Z,26.27
2019-04-06T16:36:40.423Z,26.37
2019-04-06T16:38:23.127Z,25.50
2019-04-06T16:40:21.372Z,27.95
2019-04-06T16:42:13.300Z,27.35
2019-04-06T16:44:07.893Z,27.07
2019-04-06T16:46:02.450Z,26.87
2019-04-06T16:47:56.985Z,25.52
2019-04-06T16:49:48.796Z,24.30
2019-04-06T16:51:28.706Z,24.92
2019-04-06T16:53:20.514Z,26.80
2019-04-06T16:55:15.031Z,26.37
2019-04-06T16:56:57.123Z,26.80
2019-04-06T16:58:57.796Z,25.30
2019-04-06T17:00:52.343Z,28.40
2019-04-06T17:02:37.598Z,25.50
2019-04-06T17:04:23.324Z,25.12
2019-04-06T17:06:06.458Z,26.85
2019-04-06T17:08:13.980Z,27.17
2019-04-06T17:10:05.852Z,28.75
2019-04-06T17:11:56.868Z,30.50
2019-04-06T17:13:47.204Z,26.48
2019-04-06T17:15:38.775Z,25.30
2019-04-06T17:17:38.084Z,25.30
2019-04-06T17:19:30.552Z,23.83
2019-04-06T17:21:25.411Z,26.07
2019-04-06T17:23:17.236Z,26.10
2019-04-06T17:25:27.120Z,25.68
2019-04-06T17:27:09.477Z,27.17
2019-04-06T17:29:03.761Z,26.17
2019-04-06T17:30:52.686Z,26.40
2019-04-06T17:32:37.234Z,26.75
2019-04-06T17:34:18.294Z,27.65
2019-04-06T17:35:58.480Z,29.92
2019-04-06T17:37:42.113Z,27.30
2019-04-06T17:39:33.611Z,27.15
2019-04-06T17:41:25.351Z,24.27
2019-04-06T17:43:31.930Z,25.52
2019-04-06T17:45:28.948Z,23.62
2019-04-06T17:47:32.904Z,26.00
2019-04-06T17:49:28.247Z,25.60
2019-04-06T17:51:04.825Z,25.85
2019-04-06T17:53:05.417Z,26.50
2019-04-06T17:54:50.401Z,24.95
2019-04-06T17:56:50.100Z,27.85
2019-04-06T17:58:34.797Z,24.95
2019-04-06T18:00:26.299Z,28.00
2019-04-06T18:02:26.816Z,27.22
2019-04-06T18:04:17.767Z,27.10
2019-04-06T18:06:01.772Z,28.40
2019-04-06T18:07:43.125Z,25.17
2019-04-06T18:09:37.430Z,26.90
2019-04-06T18:11:38.058Z,26.60
2019-04-06T18:13:25.652Z,29.50
2019-04-06T18:14:57.954Z,26.10
2019-04-06T18:16:33.747Z,27.87
2019-04-06T18:18:06.014Z,28.05
2019-04-06T18:19:38.374Z,26.80
2019-04-06T18:21:10.755Z,26.82
2019-04-06T18:22:42.901Z,26.30
2019-04-06T18:24:15.162Z,25.60
2019-04-06T18:25:47.428Z,28.50
2019-04-06T18:27:19.550Z,31.23
2019-04-06T18:28:51.714Z,24.92
2019-04-06T18:30:23.848Z,27.32
2019-04-06T18:32:05.768Z,28.32
2019-04-06T18:33:38.061Z,26.87
2019-04-06T18:35:10.819Z,26.80
2019-04-06T18:36:55.751Z,27.32
2019-04-06T18:38:34.750Z,27.30
2019-04-06T18:40:12.545Z,27.45
2019-04-06T18:41:44.820Z,27.55
2019-04-06T18:43:17.038Z,27.22
2019-04-06T18:44:49.156Z,28.45
2019-04-06T18:46:21.424Z,26.85
2019-04-06T18:47:53.696Z,27.85
2019-04-06T18:49:26.035Z,30.05
2019-04-06T18:50:58.266Z,28.00
2019-04-06T18:52:30.557Z,27.20
2019-04-06T18:54:04.136Z,31.20
2019-04-06T18:55:36.880Z,27.82
2019-04-06T18:57:09.192Z,30.00
2019-04-06T18:58:41.349Z,30.52
2019-04-06T19:00:14.092Z,30.80
2019-04-06T19:01:48.484Z,28.10
2019-04-06T19:03:20.908Z,31.65
2019-04-06T19:04:53.256Z,29.40
2019-04-06T19:06:25.508Z,29.75
2019-04-06T19:07:57.757Z,28.65
2019-04-06T19:09:30.248Z,28.67
2019-04-06T19:11:03.041Z,31.12
2019-04-06T19:12:35.361Z,28.83
2019-04-06T19:14:07.881Z,30.30
2019-04-06T19:15:40.087Z,31.20
2019-04-06T19:17:12.807Z,29.63
2019-04-06T19:18:45.436Z,31.97
2019-04-06T19:20:17.784Z,30.92
2019-04-06T19:21:49.896Z,31.25
2019-04-06T19:23:22.185Z,31.75
2019-04-06T19:24:54.435Z,31.52
2019-04-06T19:26:26.580Z,32.95
2019-04-06T19:27:58.737Z,30.62
2019-04-06T19:29:31.054Z,32.58
2019-04-06T19:31:03.160Z,32.13
2019-04-06T19:32:35.535Z,32.58
2019-04-06T19:34:07.688Z,33.45
2019-04-06T19:35:40.347Z,31.17
2019-04-06T19:37:12.775Z,30.60
2019-04-06T19:38:44.876Z,33.95
2019-04-06T19:40:17.180Z,31.87
2019-04-06T19:41:49.500Z,32.23
2019-04-06T19:43:21.891Z,33.05
2019-04-06T19:44:54.582Z,31.93
2019-04-06T19:46:27.155Z,33.25
2019-04-06T19:47:59.444Z,33.23
2019-04-06T19:49:31.817Z,33.10
2019-04-06T19:51:04.021Z,33.42
2019-04-06T19:52:36.097Z,29.60
2019-04-06T19:54:08.336Z,32.00
2019-04-06T19:55:41.029Z,32.42
2019-04-06T19:57:13.286Z,32.05
2019-04-06T19:58:45.395Z,31.70
2019-04-06T20:00:17.939Z,31.17
2019-04-06T20:01:50.277Z,31.40
2019-04-06T20:03:33.682Z,31.00
2019-04-06T20:04:56.522Z,34.67
2019-04-06T20:06:28.776Z,32.25
2019-04-06T20:08:01.391Z,34.33
2019-04-06T20:09:33.784Z,30.65
2019-04-06T20:11:06.338Z,30.00
2019-04-06T20:12:40.015Z,33.48
2019-04-06T20:14:12.318Z,31.97
2019-04-06T20:15:44.457Z,32.15
2019-04-06T20:17:16.754Z,32.90
2019-04-06T20:18:49.073Z,30.52
2019-04-06T20:20:21.208Z,32.65
2019-04-06T20:21:53.492Z,30.27
2019-04-06T20:23:25.647Z,31.05
2019-04-06T20:24:57.759Z,31.05
2019-04-06T20:26:31.646Z,30.77
2019-04-06T20:28:04.088Z,30.35
2019-04-06T20:29:36.459Z,28.92
2019-04-06T20:31:08.681Z,29.90
2019-04-06T20:32:40.920Z,29.23
2019-04-06T20:34:13.265Z,30.17
2019-04-06T20:35:49.956Z,27.95
2019-04-06T20:37:26.353Z,29.80
2019-04-06T20:38:58.696Z,30.72
2019-04-06T20:40:31.316Z,30.57
2019-04-06T20:42:03.990Z,32.40
2019-04-06T20:43:36.806Z,28.42
2019-04-06T20:45:09.282Z,31.37
2019-04-06T20:46:41.658Z,28.87
2019-04-06T20:48:14.022Z,27.37
2019-04-06T20:49:46.401Z,28.23
2019-04-06T20:51:18.939Z,26.48
2019-04-06T20:52:51.193Z,26.33
2019-04-06T20:54:23.439Z,27.10
2019-04-06T20:55:55.633Z,27.93
2019-04-06T20:57:28.386Z,23.67
2019-04-06T20:59:01.400Z,26.93
2019-04-06T21:00:33.723Z,25.32
2019-04-06T21:02:05.957Z,25.35
2019-04-06T21:03:38.156Z,27.10
2019-04-06T21:05:10.580Z,26.87
2019-04-06T21:06:42.873Z,25.20
2019-04-06T21:08:15.576Z,26.10
2019-04-06T21:09:48.400Z,25.45
2019-04-06T21:11:20.813Z,25.50
2019-04-06T21:12:53.095Z,26.30
2019-04-06T21:14:25.223Z,27.58
2019-04-06T21:15:57.702Z,29.15
2019-04-06T21:17:30.020Z,27.75
2019-04-06T21:19:02.984Z,26.25